Terminal Aerodrome Forecast
Issued by NWS Lake Charles, LA

Home | Current Version | Previous Version | Text Only | Print | Product List | Glossary On
Versions: 1 2 3 4 5 6 7 8 9 10 11 12 13 14
927
FTUS44 KLCH 112322
TAFARA
TAF
KARA 112322Z 1200/1224 23012G18KT P6SM SKC
     FM120100 22008KT P6SM SKC
     FM120600 21005KT 4SM BR SCT007
      TEMPO 1210/1214 1SM BR BKN003
     FM121500 24009KT P6SM SCT020
     FM122000 27011KT P6SM SCT250=

USA.gov is the U.S. government's official web portal to all federal, state and local government web resources and services.